createdAt,value
2019-03-25T00:00:15.936Z,90.5
2019-03-25T00:01:16.604Z,90.3
2019-03-25T00:02:17.271Z,90.2
2019-03-25T00:03:17.939Z,90.0
2019-03-25T00:04:18.607Z,90.0
2019-03-25T00:05:19.278Z,89.8
2019-03-25T00:06:19.991Z,89.9
2019-03-25T00:07:20.659Z,89.9
2019-03-25T00:08:21.329Z,89.5
2019-03-25T00:09:21.997Z,89.2
2019-03-25T00:10:22.666Z,89.2
2019-03-25T00:11:23.336Z,88.8
2019-03-25T00:12:24.050Z,88.9
2019-03-25T00:13:24.718Z,88.7
2019-03-25T00:14:25.386Z,88.9
2019-03-25T00:15:26.052Z,88.4
2019-03-25T00:16:26.721Z,88.5
2019-03-25T00:17:27.389Z,88.2
2019-03-25T00:18:28.057Z,88.3
2019-03-25T00:19:28.725Z,88.6
2019-03-25T00:20:29.392Z,88.6
2019-03-25T00:21:30.062Z,89.1
2019-03-25T00:22:30.730Z,89.1
2019-03-25T00:23:31.397Z,88.4
2019-03-25T00:24:38.667Z,88.2
2019-03-25T00:25:33.725Z,88.4
2019-03-25T00:26:34.418Z,88.8
2019-03-25T00:27:35.061Z,88.4
2019-03-25T00:28:35.776Z,87.9
2019-03-25T00:29:36.444Z,88.1
2019-03-25T00:30:37.113Z,88.3
2019-03-25T00:31:37.781Z,88.4
2019-03-25T00:32:38.448Z,88.1
2019-03-25T00:33:39.117Z,88.2
2019-03-25T00:34:39.784Z,87.5
2019-03-25T00:35:40.451Z,87.6
2019-03-25T00:36:41.118Z,88.3
2019-03-25T00:37:41.789Z,87.7
2019-03-25T00:38:42.455Z,87.8
2019-03-25T00:39:43.124Z,87.7
2019-03-25T00:40:43.791Z,87.7
2019-03-25T00:41:44.509Z,87.3
2019-03-25T00:42:45.177Z,87.3
2019-03-25T00:43:45.848Z,88.0
2019-03-25T00:44:46.512Z,87.7
2019-03-25T00:45:47.181Z,87.6
2019-03-25T00:46:47.850Z,87.7
2019-03-25T00:47:48.517Z,87.4
2019-03-25T00:48:49.237Z,87.4
2019-03-25T00:49:49.901Z,87.7
2019-03-25T00:50:50.568Z,87.5
2019-03-25T00:51:51.237Z,87.5
2019-03-25T00:52:51.903Z,87.4
2019-03-25T00:53:52.572Z,87.6
2019-03-25T00:54:53.241Z,87.6
2019-03-25T00:55:53.908Z,87.8
2019-03-25T00:56:54.576Z,87.6
2019-03-25T00:57:55.242Z,87.6
2019-03-25T00:58:55.912Z,87.0
2019-03-25T00:59:56.579Z,87.0
2019-03-25T01:00:57.250Z,86.6
2019-03-25T01:01:57.916Z,86.7
2019-03-25T01:02:58.583Z,86.4
2019-03-25T01:03:59.251Z,86.5
2019-03-25T01:04:59.919Z,86.6
2019-03-25T01:06:00.585Z,86.2
2019-03-25T01:07:01.252Z,85.9
2019-03-25T01:08:01.973Z,86.2
2019-03-25T01:09:02.643Z,85.5
2019-03-25T01:10:03.355Z,85.6
2019-03-25T01:11:04.024Z,85.5
2019-03-25T01:12:04.690Z,85.7
2019-03-25T01:13:05.358Z,85.1
2019-03-25T01:14:06.025Z,85.1
2019-03-25T01:15:06.694Z,85.3
2019-03-25T01:16:07.363Z,84.6
2019-03-25T01:17:08.030Z,85.4
2019-03-25T01:18:16.852Z,84.9
2019-03-25T01:19:09.407Z,85.1
2019-03-25T01:20:10.086Z,84.6
2019-03-25T01:21:10.756Z,84.6
2019-03-25T01:22:11.459Z,84.9
2019-03-25T01:23:12.127Z,84.6
2019-03-25T01:24:12.798Z,84.5
2019-03-25T01:25:13.465Z,84.2
2019-03-25T01:26:14.133Z,84.2
2019-03-25T01:27:14.800Z,84.6
2019-03-25T01:28:15.470Z,84.0
2019-03-25T01:29:16.139Z,84.1
2019-03-25T01:30:16.805Z,83.6
2019-03-25T01:31:17.472Z,84.0
2019-03-25T01:32:18.141Z,83.7
2019-03-25T01:33:18.809Z,83.2
2019-03-25T01:34:19.478Z,83.0
2019-03-25T01:35:20.148Z,83.2
2019-03-25T01:36:20.819Z,82.6
2019-03-25T01:37:21.527Z,82.8
2019-03-25T01:38:22.195Z,82.1
2019-03-25T01:39:22.863Z,82.0
2019-03-25T01:40:23.532Z,82.2
2019-03-25T01:41:24.199Z,82.0
2019-03-25T01:42:24.869Z,82.4
2019-03-25T01:43:25.537Z,81.8
2019-03-25T01:44:26.203Z,81.6
2019-03-25T01:45:26.921Z,81.2
2019-03-25T01:46:27.589Z,80.6
2019-03-25T01:47:28.256Z,81.1
2019-03-25T01:48:28.972Z,80.8
2019-03-25T01:49:29.640Z,80.8
2019-03-25T01:50:30.308Z,80.6
2019-03-25T01:51:30.980Z,80.7
2019-03-25T01:52:31.642Z,81.2
2019-03-25T01:53:32.312Z,81.0
2019-03-25T01:54:32.979Z,81.4
2019-03-25T01:55:33.648Z,81.3
2019-03-25T01:56:34.315Z,81.2
2019-03-25T01:57:34.983Z,81.3
2019-03-25T01:58:35.654Z,81.8
2019-03-25T01:59:36.321Z,81.7
2019-03-25T02:00:36.991Z,81.4
2019-03-25T02:01:37.655Z,81.8
2019-03-25T02:02:38.372Z,82.2
2019-03-25T02:03:39.037Z,82.1
2019-03-25T02:04:39.706Z,82.8
2019-03-25T02:05:40.372Z,82.6
2019-03-25T02:06:41.042Z,82.8
2019-03-25T02:07:41.709Z,83.0
2019-03-25T02:08:42.381Z,83.4
2019-03-25T02:09:43.049Z,83.7
2019-03-25T02:10:43.719Z,84.2
2019-03-25T02:11:44.388Z,83.8
2019-03-25T02:12:45.054Z,84.0
2019-03-25T02:13:45.750Z,83.8
2019-03-25T02:14:46.418Z,83.8
2019-03-25T02:15:47.084Z,84.7
2019-03-25T02:16:47.754Z,83.9
2019-03-25T02:17:48.420Z,83.7
2019-03-25T02:18:49.090Z,84.0
2019-03-25T02:19:49.755Z,84.1
2019-03-25T02:20:50.423Z,83.7
2019-03-25T02:21:51.091Z,83.9
2019-03-25T02:22:51.923Z,83.9
2019-03-25T02:23:52.685Z,83.7
2019-03-25T02:24:53.352Z,83.6
2019-03-25T02:25:54.021Z,83.7
2019-03-25T02:26:54.689Z,83.6
2019-03-25T02:27:55.358Z,84.0
2019-03-25T02:28:56.025Z,84.0
2019-03-25T02:29:56.694Z,83.9
2019-03-25T02:30:57.363Z,84.3
2019-03-25T02:31:58.031Z,84.5
2019-03-25T02:32:58.698Z,85.0
2019-03-25T02:33:59.366Z,85.0
2019-03-25T02:35:00.036Z,84.8
2019-03-25T02:36:00.699Z,84.9
2019-03-25T02:37:01.376Z,85.2
2019-03-25T02:38:02.108Z,85.6
2019-03-25T02:39:02.765Z,85.6
2019-03-25T02:40:03.431Z,85.7
2019-03-25T02:41:04.108Z,86.2
2019-03-25T02:42:04.768Z,86.1
2019-03-25T02:43:05.435Z,85.9
2019-03-25T02:44:06.101Z,86.0
2019-03-25T02:45:06.771Z,86.6
2019-03-25T02:46:07.459Z,86.4
2019-03-25T02:47:08.144Z,86.4
2019-03-25T02:48:08.812Z,86.4
2019-03-25T02:49:09.492Z,86.3
2019-03-25T02:50:10.144Z,86.2
2019-03-25T02:51:10.813Z,85.8
2019-03-25T02:52:11.529Z,85.9
2019-03-25T02:53:12.213Z,86.1
2019-03-25T02:54:12.869Z,85.3
2019-03-25T02:55:13.531Z,85.0
2019-03-25T02:56:14.244Z,84.8
2019-03-25T02:57:14.917Z,85.1
2019-03-25T02:58:15.580Z,84.6
2019-03-25T02:59:16.250Z,84.6
2019-03-25T03:00:16.965Z,84.5
2019-03-25T03:01:17.631Z,84.2
2019-03-25T03:02:18.299Z,84.2
2019-03-25T03:03:18.967Z,84.2
2019-03-25T03:04:19.646Z,84.4
2019-03-25T03:05:20.308Z,84.6
2019-03-25T03:06:20.969Z,84.6
2019-03-25T03:07:21.637Z,84.6
2019-03-25T03:08:22.305Z,84.3
2019-03-25T03:09:22.975Z,84.2
2019-03-25T03:10:23.640Z,84.3
2019-03-25T03:11:24.308Z,84.7
2019-03-25T03:12:24.975Z,84.5
2019-03-25T03:13:25.642Z,84.2
2019-03-25T03:14:26.310Z,84.6
2019-03-25T03:15:26.978Z,85.1
2019-03-25T03:16:27.643Z,84.6
2019-03-25T03:17:28.313Z,84.5
2019-03-25T03:18:28.985Z,85.0
2019-03-25T03:19:29.649Z,85.0
2019-03-25T03:20:30.315Z,85.0
2019-03-25T03:21:30.984Z,85.1
2019-03-25T03:22:31.652Z,84.9
2019-03-25T03:23:32.366Z,85.1
2019-03-25T03:24:33.034Z,85.0
2019-03-25T03:25:33.701Z,85.0
2019-03-25T03:26:34.368Z,84.8
2019-03-25T03:27:35.082Z,85.1
2019-03-25T03:28:35.750Z,85.0
2019-03-25T03:29:36.420Z,85.2
2019-03-25T03:30:37.135Z,85.0
2019-03-25T03:31:37.852Z,84.9
2019-03-25T03:32:38.512Z,84.9
2019-03-25T03:33:39.211Z,84.7
2019-03-25T03:34:39.883Z,85.0
2019-03-25T03:35:40.547Z,84.7
2019-03-25T03:36:41.215Z,85.0
2019-03-25T03:37:41.878Z,85.0
2019-03-25T03:38:42.545Z,85.1
2019-03-25T03:39:43.220Z,85.1
2019-03-25T03:40:43.930Z,85.1
2019-03-25T03:41:44.597Z,84.6
2019-03-25T03:42:45.266Z,85.2
2019-03-25T03:43:45.978Z,85.0
2019-03-25T03:44:46.646Z,84.4
2019-03-25T03:45:47.317Z,84.6
2019-03-25T03:46:47.979Z,84.6
2019-03-25T03:47:48.648Z,84.3
2019-03-25T03:48:49.320Z,84.4
2019-03-25T03:49:49.987Z,84.6
2019-03-25T03:50:50.648Z,84.0
2019-03-25T03:51:51.317Z,84.1
2019-03-25T03:52:51.984Z,83.8
2019-03-25T03:53:52.651Z,83.8
2019-03-25T03:54:53.319Z,83.5
2019-03-25T03:55:53.985Z,83.3
2019-03-25T03:56:54.657Z,83.3
2019-03-25T03:57:55.322Z,83.1
2019-03-25T03:58:55.991Z,82.9
2019-03-25T03:59:56.668Z,82.6
2019-03-25T04:00:57.373Z,83.0
2019-03-25T04:01:58.041Z,82.7
2019-03-25T04:02:58.756Z,82.9
2019-03-25T04:03:59.424Z,82.9
2019-03-25T04:05:00.093Z,82.8
2019-03-25T04:06:00.790Z,82.9
2019-03-25T04:07:01.462Z,82.2
2019-03-25T04:08:02.174Z,83.0
2019-03-25T04:09:02.841Z,82.8
2019-03-25T04:10:03.514Z,82.3
2019-03-25T04:11:04.177Z,82.2
2019-03-25T04:12:04.853Z,82.2
2019-03-25T04:13:05.510Z,82.2
2019-03-25T04:14:06.179Z,81.8
2019-03-25T04:15:06.862Z,81.6
2019-03-25T04:16:07.520Z,81.8
2019-03-25T04:17:08.183Z,81.4
2019-03-25T04:18:08.905Z,81.4
2019-03-25T04:19:09.568Z,81.1
2019-03-25T04:20:10.236Z,81.0
2019-03-25T04:21:10.903Z,80.6
2019-03-25T04:22:11.570Z,80.7
2019-03-25T04:23:12.257Z,80.2
2019-03-25T04:24:12.904Z,80.3
2019-03-25T04:25:13.572Z,80.3
2019-03-25T04:26:27.639Z,80.3
2019-03-25T04:27:15.951Z,80.1
2019-03-25T04:28:16.664Z,79.6
2019-03-25T04:29:17.340Z,79.8
2019-03-25T04:30:17.999Z,79.5
2019-03-25T04:31:18.671Z,79.8
2019-03-25T04:32:19.393Z,79.5
2019-03-25T04:33:20.100Z,79.4
2019-03-25T04:34:20.774Z,79.5
2019-03-25T04:35:21.435Z,78.6
2019-03-25T04:36:22.102Z,79.2
2019-03-25T04:37:22.772Z,79.2
2019-03-25T04:38:23.490Z,78.6
2019-03-25T04:39:24.157Z,79.1
2019-03-25T04:40:24.825Z,78.9
2019-03-25T04:41:25.493Z,79.2
2019-03-25T04:42:26.161Z,79.3
2019-03-25T04:43:26.831Z,79.5
2019-03-25T04:44:27.540Z,79.6
2019-03-25T04:45:28.210Z,79.7
2019-03-25T04:46:28.876Z,79.5
2019-03-25T04:47:29.545Z,80.4
2019-03-25T04:48:30.212Z,79.9
2019-03-25T04:49:30.880Z,80.0
2019-03-25T04:50:31.549Z,80.3
2019-03-25T04:51:32.218Z,80.7
2019-03-25T04:52:32.885Z,80.6
2019-03-25T04:53:33.553Z,80.9
2019-03-25T04:54:34.224Z,81.2
2019-03-25T04:55:34.893Z,81.0
2019-03-25T04:56:39.839Z,81.1
2019-03-25T04:57:37.223Z,81.2
2019-03-25T04:58:37.895Z,81.3
2019-03-25T04:59:38.563Z,81.5
2019-03-25T05:00:39.227Z,81.6
2019-03-25T05:01:39.902Z,81.8
2019-03-25T05:02:40.615Z,81.6
2019-03-25T05:03:41.285Z,81.7
2019-03-25T05:04:41.957Z,81.7
2019-03-25T05:05:42.623Z,81.1
2019-03-25T05:06:43.290Z,80.6
2019-03-25T05:07:43.958Z,80.9
2019-03-25T05:08:44.629Z,81.0
2019-03-25T05:09:45.297Z,80.4
2019-03-25T05:10:45.968Z,80.6
2019-03-25T05:11:46.633Z,80.6
2019-03-25T05:12:47.304Z,80.7
2019-03-25T05:13:47.972Z,80.7
2019-03-25T05:14:48.641Z,80.7
2019-03-25T05:15:49.311Z,80.2
2019-03-25T05:16:50.027Z,80.1
2019-03-25T05:17:50.698Z,80.2
2019-03-25T05:18:51.372Z,80.6
2019-03-25T05:19:52.158Z,80.9
2019-03-25T05:20:52.781Z,80.9
2019-03-25T05:21:53.451Z,80.6
2019-03-25T05:22:54.125Z,80.6
2019-03-25T05:23:54.790Z,81.4
2019-03-25T05:24:55.460Z,81.3
2019-03-25T05:25:56.130Z,81.0
2019-03-25T05:26:56.801Z,81.1
2019-03-25T05:27:57.470Z,81.3
2019-03-25T05:28:58.140Z,81.1
2019-03-25T05:29:58.811Z,81.7
2019-03-25T05:30:59.481Z,81.5
2019-03-25T05:32:00.153Z,82.0
2019-03-25T05:33:00.824Z,81.8
2019-03-25T05:34:01.494Z,81.8
2019-03-25T05:35:02.179Z,82.3
2019-03-25T05:36:02.839Z,82.3
2019-03-25T05:37:03.510Z,82.4
2019-03-25T05:38:04.180Z,82.7
2019-03-25T05:39:04.854Z,82.5
2019-03-25T05:40:05.526Z,83.5
2019-03-25T05:41:06.197Z,83.6
2019-03-25T05:42:06.868Z,84.1
2019-03-25T05:43:07.539Z,84.7
2019-03-25T05:44:08.212Z,84.3
2019-03-25T05:45:08.882Z,84.5
2019-03-25T05:46:09.551Z,84.8
2019-03-25T05:47:10.221Z,84.7
2019-03-25T05:48:10.891Z,84.5
2019-03-25T05:49:11.562Z,84.5
2019-03-25T05:50:12.232Z,84.6
2019-03-25T05:51:12.903Z,84.8
2019-03-25T05:52:13.573Z,84.0
2019-03-25T05:53:14.245Z,84.5
2019-03-25T05:54:14.917Z,84.5
2019-03-25T05:55:15.587Z,84.8
2019-03-25T05:56:16.262Z,84.6
2019-03-25T05:57:16.933Z,84.8
2019-03-25T05:58:17.606Z,84.5
2019-03-25T05:59:18.279Z,85.0
2019-03-25T06:00:18.952Z,84.4
2019-03-25T06:01:19.624Z,84.6
2019-03-25T06:02:20.298Z,84.6
2019-03-25T06:03:20.971Z,84.5
2019-03-25T06:04:21.648Z,84.6
2019-03-25T06:05:22.319Z,84.4
2019-03-25T06:06:22.992Z,84.8
2019-03-25T06:07:23.666Z,84.4
2019-03-25T06:08:24.339Z,84.4
2019-03-25T06:09:25.013Z,84.3
2019-03-25T06:10:25.687Z,83.6
2019-03-25T06:11:26.363Z,83.4
2019-03-25T06:12:27.034Z,82.6
2019-03-25T06:13:27.709Z,82.3
2019-03-25T06:14:28.380Z,81.1
2019-03-25T06:15:29.051Z,80.5
2019-03-25T06:16:29.723Z,79.7
2019-03-25T06:17:30.395Z,80.0
2019-03-25T06:18:31.069Z,79.7
2019-03-25T06:19:31.789Z,79.8
2019-03-25T06:20:32.462Z,79.8
2019-03-25T06:21:33.135Z,79.7
2019-03-25T06:22:33.809Z,80.6
2019-03-25T06:23:34.481Z,80.3
2019-03-25T06:24:35.160Z,80.6
2019-03-25T06:25:35.829Z,80.0
2019-03-25T06:26:36.502Z,80.4
2019-03-25T06:27:37.176Z,80.4
2019-03-25T06:28:37.848Z,81.0
2019-03-25T06:29:38.521Z,80.8
2019-03-25T06:30:39.197Z,81.0
2019-03-25T06:31:39.871Z,81.0
2019-03-25T06:32:40.552Z,81.3
2019-03-25T06:33:41.218Z,80.9
2019-03-25T06:34:41.893Z,80.6
2019-03-25T06:35:42.567Z,80.5
2019-03-25T06:36:43.240Z,80.6
2019-03-25T06:37:43.915Z,80.6
2019-03-25T06:38:44.589Z,81.1
2019-03-25T06:39:45.262Z,81.4
2019-03-25T06:40:45.940Z,81.2
2019-03-25T06:41:46.612Z,81.1
2019-03-25T06:42:47.285Z,81.2
2019-03-25T06:43:47.962Z,81.7
2019-03-25T06:44:48.688Z,81.9
2019-03-25T06:45:49.357Z,83.0
2019-03-25T06:46:50.030Z,82.9
2019-03-25T06:47:50.703Z,83.4
2019-03-25T06:48:51.378Z,83.4
2019-03-25T06:49:52.050Z,84.0
2019-03-25T06:50:52.723Z,83.9
2019-03-25T06:51:53.398Z,84.5
2019-03-25T06:52:54.071Z,84.7
2019-03-25T06:53:54.750Z,85.1
2019-03-25T06:54:55.419Z,85.3
2019-03-25T06:55:56.100Z,85.7
2019-03-25T06:56:56.767Z,86.1
2019-03-25T06:57:57.442Z,86.7
2019-03-25T06:58:58.116Z,86.1
2019-03-25T06:59:58.793Z,85.8
2019-03-25T07:00:59.465Z,85.5
2019-03-25T07:02:00.142Z,85.3
2019-03-25T07:03:00.813Z,85.8
2019-03-25T07:04:01.538Z,85.1
2019-03-25T07:05:02.274Z,85.2
2019-03-25T07:06:03.003Z,85.4
2019-03-25T07:07:03.722Z,84.5
2019-03-25T07:08:04.433Z,84.1
2019-03-25T07:09:05.105Z,83.8
2019-03-25T07:10:05.781Z,83.0
2019-03-25T07:11:06.454Z,82.7
2019-03-25T07:12:07.129Z,82.9
2019-03-25T07:13:07.804Z,82.7
2019-03-25T07:14:08.475Z,82.9
2019-03-25T07:15:09.149Z,82.3
2019-03-25T07:16:09.847Z,82.3
2019-03-25T07:17:10.545Z,82.5
2019-03-25T07:18:11.217Z,83.1
2019-03-25T07:19:11.892Z,83.1
2019-03-25T07:20:12.566Z,82.6
2019-03-25T07:21:13.237Z,83.2
2019-03-25T07:22:13.912Z,83.1
2019-03-25T07:23:14.628Z,83.4
2019-03-25T07:24:15.306Z,83.5
2019-03-25T07:25:16.012Z,83.9
2019-03-25T07:26:16.704Z,84.3
2019-03-25T07:27:17.376Z,83.8
2019-03-25T07:28:18.057Z,84.6
2019-03-25T07:29:18.772Z,84.6
2019-03-25T07:30:19.448Z,84.8
2019-03-25T07:31:20.121Z,84.6
2019-03-25T07:32:20.802Z,84.5
2019-03-25T07:33:21.470Z,83.9
2019-03-25T07:34:22.145Z,84.1
2019-03-25T07:35:22.834Z,84.1
2019-03-25T07:36:23.499Z,83.2
2019-03-25T07:37:24.172Z,83.4
2019-03-25T07:38:24.847Z,82.3
2019-03-25T07:39:25.523Z,81.2
2019-03-25T07:40:26.244Z,81.2
2019-03-25T07:41:26.920Z,80.5
2019-03-25T07:42:27.595Z,80.5
2019-03-25T07:43:28.273Z,79.8
2019-03-25T07:44:28.944Z,77.6
2019-03-25T07:45:29.622Z,74.4
2019-03-25T07:46:30.294Z,72.7
2019-03-25T07:47:30.969Z,70.5
2019-03-25T07:48:31.642Z,68.7
2019-03-25T07:49:32.319Z,65.9
2019-03-25T07:50:32.995Z,63.8
2019-03-25T07:51:33.670Z,61.1
2019-03-25T07:52:34.348Z,59.6
2019-03-25T07:53:35.032Z,58.0
2019-03-25T07:54:35.712Z,57.2
2019-03-25T07:55:36.380Z,55.2
2019-03-25T07:56:37.104Z,53.6
2019-03-25T07:57:47.621Z,53.0
2019-03-25T07:58:39.503Z,52.3
2019-03-25T07:59:40.180Z,51.2
2019-03-25T08:00:40.883Z,50.6
2019-03-25T08:01:41.563Z,50.2
2019-03-25T08:02:42.245Z,50.1
2019-03-25T08:03:42.890Z,49.8
2019-03-25T08:04:43.584Z,49.8
2019-03-25T08:05:44.248Z,49.3
2019-03-25T08:06:44.933Z,49.0
2019-03-25T08:07:45.605Z,48.1
2019-03-25T08:08:46.317Z,46.7
2019-03-25T08:09:46.977Z,46.1
2019-03-25T08:10:47.653Z,46.0
2019-03-25T08:11:48.338Z,47.8
2019-03-25T08:12:49.014Z,49.9
2019-03-25T08:13:49.683Z,51.2
2019-03-25T08:14:50.376Z,52.6
2019-03-25T08:15:51.043Z,53.6
2019-03-25T08:16:51.753Z,55.4
2019-03-25T08:17:52.453Z,56.6
2019-03-25T08:18:53.133Z,58.3
2019-03-25T08:19:53.811Z,60.0
2019-03-25T08:20:54.524Z,62.2
2019-03-25T08:21:55.220Z,63.9
2019-03-25T08:22:55.900Z,64.8
2019-03-25T08:23:56.579Z,64.8
2019-03-25T08:24:57.259Z,65.7
2019-03-25T08:25:57.938Z,65.8
2019-03-25T08:26:58.617Z,65.5
2019-03-25T08:28:00.458Z,66.0
2019-03-25T08:29:00.966Z,65.6
2019-03-25T08:30:01.647Z,64.9
2019-03-25T08:31:02.327Z,64.9
2019-03-25T08:32:03.013Z,65.4
2019-03-25T08:33:03.734Z,66.0
2019-03-25T08:34:04.411Z,66.7
2019-03-25T08:35:05.091Z,67.0
2019-03-25T08:36:05.767Z,66.7
2019-03-25T08:37:06.465Z,66.6
2019-03-25T08:38:07.124Z,64.7
2019-03-25T08:39:07.802Z,62.8
2019-03-25T08:40:08.482Z,60.7
2019-03-25T08:41:09.161Z,57.4
2019-03-25T08:42:09.840Z,56.1
2019-03-25T08:43:10.519Z,54.8
2019-03-25T08:44:11.198Z,54.3
2019-03-25T08:45:11.878Z,54.6
2019-03-25T08:46:12.563Z,53.6
2019-03-25T08:47:13.283Z,54.0
2019-03-25T08:48:13.963Z,53.7
2019-03-25T08:49:14.641Z,53.3
2019-03-25T08:50:15.324Z,51.8
2019-03-25T08:51:16.000Z,51.1
2019-03-25T08:52:16.679Z,50.7
2019-03-25T08:53:17.408Z,50.0
2019-03-25T08:54:18.094Z,51.2
2019-03-25T08:55:18.769Z,51.5
2019-03-25T08:56:19.495Z,51.7
2019-03-25T08:57:20.182Z,51.8
2019-03-25T08:58:20.856Z,52.9
2019-03-25T08:59:21.582Z,53.7
2019-03-25T09:00:22.263Z,54.8
2019-03-25T09:01:22.942Z,54.5
2019-03-25T09:02:23.622Z,55.3
2019-03-25T09:03:24.299Z,54.7
2019-03-25T09:04:24.978Z,53.4
2019-03-25T09:05:25.660Z,52.1
2019-03-25T09:06:26.339Z,50.6
2019-03-25T09:07:27.017Z,48.9
2019-03-25T09:08:27.700Z,48.9
2019-03-25T09:09:28.376Z,48.1
2019-03-25T09:10:29.057Z,47.4
2019-03-25T09:11:29.736Z,47.1
2019-03-25T09:12:30.415Z,47.2
2019-03-25T09:13:31.096Z,47.2
2019-03-25T09:14:31.775Z,47.5
2019-03-25T09:15:32.455Z,48.1
2019-03-25T09:16:33.134Z,47.8
2019-03-25T09:17:33.812Z,47.3
2019-03-25T09:18:34.496Z,47.0
2019-03-25T09:19:35.221Z,47.4
2019-03-25T09:20:35.901Z,47.2
2019-03-25T09:21:36.582Z,46.8
2019-03-25T09:22:37.309Z,45.7
2019-03-25T09:23:37.991Z,45.0
2019-03-25T09:24:38.672Z,43.5
2019-03-25T09:25:39.352Z,42.1
2019-03-25T09:26:40.032Z,42.2
2019-03-25T09:27:40.711Z,43.1
2019-03-25T09:28:41.394Z,44.1
2019-03-25T09:29:42.076Z,44.5
2019-03-25T09:30:42.760Z,45.0
2019-03-25T09:31:43.438Z,44.9
2019-03-25T09:32:44.119Z,45.1
2019-03-25T09:33:44.802Z,45.2
2019-03-25T09:34:45.484Z,43.9
2019-03-25T09:35:46.180Z,43.3
2019-03-25T09:36:46.845Z,43.8
2019-03-25T09:37:47.525Z,43.5
2019-03-25T09:38:48.210Z,45.1
2019-03-25T09:39:48.890Z,46.1
2019-03-25T09:40:49.570Z,46.6
2019-03-25T09:41:50.253Z,46.0
2019-03-25T09:42:50.939Z,45.4
2019-03-25T09:43:51.615Z,45.1
2019-03-25T09:44:52.297Z,44.6
2019-03-25T09:45:52.978Z,43.5
2019-03-25T09:46:53.661Z,43.3
2019-03-25T09:47:54.342Z,42.9
2019-03-25T09:48:55.024Z,43.1
2019-03-25T09:49:55.704Z,43.5
2019-03-25T09:50:56.385Z,43.5
2019-03-25T09:51:57.118Z,44.4
2019-03-25T09:52:57.799Z,44.8
2019-03-25T09:53:58.489Z,45.3
2019-03-25T09:54:59.166Z,46.1
2019-03-25T09:55:59.891Z,47.4
2019-03-25T09:57:00.577Z,48.0
2019-03-25T09:58:01.254Z,49.0
2019-03-25T09:59:01.940Z,48.8
2019-03-25T10:00:02.617Z,49.6
2019-03-25T10:01:03.296Z,49.4
2019-03-25T10:02:03.980Z,49.8
2019-03-25T10:03:04.661Z,50.2
2019-03-25T10:04:05.344Z,51.2
2019-03-25T10:05:06.030Z,52.1
2019-03-25T10:06:06.704Z,52.2
2019-03-25T10:07:07.385Z,52.4
2019-03-25T10:08:08.065Z,52.6
2019-03-25T10:09:08.747Z,53.4
2019-03-25T10:10:09.473Z,53.9
2019-03-25T10:11:10.152Z,52.6
2019-03-25T10:12:10.834Z,52.1
2019-03-25T10:13:11.514Z,52.3
2019-03-25T10:14:12.194Z,52.6
2019-03-25T10:15:12.874Z,53.4
2019-03-25T10:16:13.553Z,54.4
2019-03-25T10:17:14.235Z,54.5
2019-03-25T10:18:14.916Z,55.0
2019-03-25T10:19:15.593Z,55.7
2019-03-25T10:20:16.273Z,56.4
2019-03-25T10:21:16.956Z,56.1
2019-03-25T10:22:17.684Z,56.3
2019-03-25T10:23:18.364Z,55.8
2019-03-25T10:24:19.047Z,55.9
2019-03-25T10:25:19.724Z,55.1
2019-03-25T10:26:20.403Z,54.6
2019-03-25T10:27:21.082Z,54.4
2019-03-25T10:28:21.762Z,53.8
2019-03-25T10:29:22.441Z,54.1
2019-03-25T10:30:23.122Z,54.4
2019-03-25T10:31:23.809Z,55.4
2019-03-25T10:32:24.535Z,56.0
2019-03-25T10:33:25.260Z,55.9
2019-03-25T10:34:25.941Z,56.1
2019-03-25T10:35:26.620Z,56.6
2019-03-25T10:36:27.297Z,56.9
2019-03-25T10:37:27.977Z,57.2
2019-03-25T10:38:28.656Z,57.9
2019-03-25T10:39:29.336Z,58.5
2019-03-25T10:40:30.014Z,59.5
2019-03-25T10:41:30.692Z,61.1
2019-03-25T10:42:31.371Z,63.3
2019-03-25T10:43:32.052Z,65.2
2019-03-25T10:44:32.776Z,68.1
2019-03-25T10:45:33.453Z,71.2
2019-03-25T10:46:34.131Z,72.5
2019-03-25T10:47:34.858Z,73.9
2019-03-25T10:48:35.535Z,76.0
2019-03-25T10:49:36.264Z,76.6
2019-03-25T10:50:36.937Z,78.1
2019-03-25T10:51:37.612Z,77.6
2019-03-25T10:52:38.291Z,78.0
2019-03-25T10:53:38.968Z,77.7
2019-03-25T10:54:39.758Z,76.6
2019-03-25T10:55:40.429Z,77.2
2019-03-25T10:56:48.964Z,76.5
2019-03-25T10:57:41.826Z,75.1
2019-03-25T10:58:42.504Z,74.6
2019-03-25T10:59:43.181Z,73.0
2019-03-25T11:00:43.859Z,71.4
2019-03-25T11:01:44.536Z,70.7
2019-03-25T11:02:45.288Z,69.7
2019-03-25T11:03:45.990Z,68.0
2019-03-25T11:04:46.670Z,66.7
2019-03-25T11:05:47.350Z,65.2
2019-03-25T11:06:48.081Z,65.1
2019-03-25T11:07:48.759Z,63.1
2019-03-25T11:08:49.437Z,61.3
2019-03-25T11:09:50.116Z,60.6
2019-03-25T11:10:50.794Z,59.9
2019-03-25T11:11:51.479Z,60.0
2019-03-25T11:12:52.203Z,59.4
2019-03-25T11:13:52.891Z,59.5
2019-03-25T11:14:53.566Z,59.1
2019-03-25T11:15:54.242Z,59.2
2019-03-25T11:16:54.922Z,59.3
2019-03-25T11:17:55.602Z,59.3
2019-03-25T11:18:56.282Z,59.5
2019-03-25T11:19:56.961Z,59.3
2019-03-25T11:20:57.640Z,59.4
2019-03-25T11:21:58.321Z,59.1
2019-03-25T11:22:59.000Z,59.0
2019-03-25T11:23:59.678Z,59.5
2019-03-25T11:25:00.360Z,59.6
2019-03-25T11:26:01.037Z,59.8
2019-03-25T11:27:01.718Z,59.9
2019-03-25T11:28:02.398Z,59.9
2019-03-25T11:29:08.281Z,59.8
2019-03-25T11:30:05.621Z,60.5
2019-03-25T11:31:05.468Z,61.0
2019-03-25T11:32:06.148Z,61.2
2019-03-25T11:33:06.828Z,62.8
2019-03-25T11:34:07.507Z,63.8
2019-03-25T11:35:08.187Z,66.8
2019-03-25T11:36:08.866Z,69.5
2019-03-25T11:37:09.545Z,70.7
2019-03-25T11:38:10.225Z,71.9
2019-03-25T11:39:10.903Z,72.7
2019-03-25T11:40:11.582Z,73.8
2019-03-25T11:41:12.264Z,74.2
2019-03-25T11:42:12.938Z,74.9
2019-03-25T11:43:13.622Z,75.2
2019-03-25T11:44:14.344Z,76.8
2019-03-25T11:45:15.021Z,78.0
2019-03-25T11:46:15.698Z,78.3
2019-03-25T11:47:16.374Z,78.8
2019-03-25T11:48:17.100Z,81.9
2019-03-25T11:49:17.775Z,84.3
2019-03-25T11:50:18.452Z,86.4
2019-03-25T11:51:19.127Z,87.9
2019-03-25T11:52:19.802Z,89.3
2019-03-25T11:53:20.480Z,90.6
2019-03-25T11:54:21.153Z,92.5
2019-03-25T11:55:21.829Z,92.7
2019-03-25T11:56:22.503Z,94.4
2019-03-25T11:57:23.178Z,96.0
2019-03-25T11:58:24.206Z,97.0
2019-03-25T11:59:24.823Z,97.7
2019-03-25T12:00:25.500Z,98.4
2019-03-25T12:01:26.177Z,100.0
2019-03-25T12:02:26.853Z,100.0
2019-03-25T12:03:27.530Z,100.0
2019-03-25T12:04:28.207Z,100.0
2019-03-25T12:05:28.885Z,100.0
2019-03-25T12:06:29.563Z,100.0
2019-03-25T12:07:30.237Z,100.0
2019-03-25T12:08:30.918Z,100.0
2019-03-25T12:09:31.591Z,100.0
2019-03-25T12:10:32.275Z,100.0
2019-03-25T12:11:32.992Z,100.0
2019-03-25T12:12:33.667Z,100.0
2019-03-25T12:13:34.344Z,100.0
2019-03-25T12:14:35.021Z,100.0
2019-03-25T12:15:35.697Z,100.0
2019-03-25T12:16:36.373Z,100.0
2019-03-25T12:17:37.049Z,100.0
2019-03-25T12:18:37.724Z,100.0
2019-03-25T12:19:38.401Z,100.0
2019-03-25T12:20:39.075Z,99.9
2019-03-25T12:21:39.755Z,100.0
2019-03-25T12:22:40.430Z,99.9
2019-03-25T12:23:41.104Z,98.6
2019-03-25T12:24:41.779Z,97.3
2019-03-25T12:25:42.454Z,96.9
2019-03-25T12:26:43.180Z,97.9
2019-03-25T12:27:43.858Z,96.6
2019-03-25T12:28:44.533Z,96.0
2019-03-25T12:29:45.207Z,94.4
2019-03-25T12:30:45.883Z,93.3
2019-03-25T12:31:46.561Z,92.0
2019-03-25T12:32:47.235Z,90.1
2019-03-25T12:33:47.912Z,89.9
2019-03-25T12:34:48.589Z,90.4
2019-03-25T12:35:49.265Z,90.6
2019-03-25T12:36:49.940Z,91.3
2019-03-25T12:37:50.621Z,90.3
2019-03-25T12:38:51.299Z,90.4
2019-03-25T12:39:52.020Z,90.8
2019-03-25T12:40:52.702Z,90.2
2019-03-25T12:41:53.375Z,88.4
2019-03-25T12:42:54.051Z,86.7
2019-03-25T12:43:54.774Z,86.0
2019-03-25T12:44:55.449Z,85.6
2019-03-25T12:45:56.126Z,86.6
2019-03-25T12:46:56.803Z,84.4
2019-03-25T12:47:57.482Z,84.2
2019-03-25T12:48:58.162Z,84.1
2019-03-25T12:49:58.836Z,83.4
2019-03-25T12:50:59.516Z,83.3
2019-03-25T12:52:00.191Z,82.9
2019-03-25T12:53:00.868Z,83.4
2019-03-25T12:54:01.543Z,83.6
2019-03-25T12:55:02.218Z,83.3
2019-03-25T12:56:02.895Z,82.8
2019-03-25T12:57:03.570Z,82.2
2019-03-25T12:58:04.246Z,83.6
2019-03-25T12:59:04.921Z,85.6
2019-03-25T13:00:05.599Z,86.4
2019-03-25T13:01:06.279Z,88.1
2019-03-25T13:02:07.006Z,88.6
2019-03-25T13:03:07.727Z,89.6
2019-03-25T13:04:08.405Z,91.3
2019-03-25T13:05:09.080Z,91.1
2019-03-25T13:06:09.755Z,91.2
2019-03-25T13:07:10.434Z,90.6
2019-03-25T13:08:11.112Z,91.2
2019-03-25T13:09:11.785Z,93.3
2019-03-25T13:10:12.462Z,93.6
2019-03-25T13:11:13.139Z,92.7
2019-03-25T13:12:13.815Z,92.7
2019-03-25T13:13:14.492Z,92.8
2019-03-25T13:14:15.168Z,94.5
2019-03-25T13:15:15.841Z,94.0
2019-03-25T13:16:16.519Z,92.0
2019-03-25T13:17:17.194Z,92.3
2019-03-25T13:18:17.870Z,91.9
2019-03-25T13:19:18.545Z,90.5
2019-03-25T13:20:19.220Z,90.8
2019-03-25T13:21:19.900Z,89.6
2019-03-25T13:22:20.577Z,88.5
2019-03-25T13:23:21.253Z,87.2
2019-03-25T13:24:21.932Z,86.3
2019-03-25T13:25:22.612Z,85.9
2019-03-25T13:26:23.289Z,85.8